createdAt,value
2023-03-27T00:01:20.771Z,46.51
2023-03-27T00:03:49.947Z,46.06
2023-03-27T00:06:18.521Z,46.75
2023-03-27T00:08:47.099Z,46.51
2023-03-27T00:11:14.587Z,46.38
2023-03-27T00:13:42.553Z,46.16
2023-03-27T00:16:17.676Z,46.77
2023-03-27T00:18:44.940Z,46.51
2023-03-27T00:21:11.697Z,46.38
2023-03-27T00:23:38.359Z,46.58
2023-03-27T00:26:05.465Z,46.23
2023-03-27T00:28:32.349Z,46.45
2023-03-27T00:30:59.314Z,46.27
2023-03-27T00:33:26.269Z,46.29
2023-03-27T00:35:53.298Z,46.55
2023-03-27T00:38:21.111Z,46.49
2023-03-27T00:40:50.761Z,46.20
2023-03-27T00:43:21.554Z,46.74
2023-03-27T00:45:52.035Z,46.19
2023-03-27T00:48:20.680Z,46.89
2023-03-27T00:50:49.593Z,46.10
2023-03-27T00:53:19.600Z,46.51
2023-03-27T00:55:49.683Z,46.57
2023-03-27T00:58:22.271Z,46.48
2023-03-27T01:00:53.021Z,46.59
2023-03-27T01:03:21.429Z,46.83
2023-03-27T01:05:50.233Z,46.70
2023-03-27T01:08:17.254Z,46.91
2023-03-27T01:11:04.132Z,46.45
2023-03-27T01:13:58.489Z,46.27
2023-03-27T01:16:49.517Z,46.99
2023-03-27T01:19:57.992Z,46.70
2023-03-27T01:22:35.438Z,46.65
2023-03-27T01:25:26.354Z,46.79
2023-03-27T01:28:26.644Z,47.11
2023-03-27T01:31:22.467Z,46.98
2023-03-27T01:34:06.930Z,46.98
2023-03-27T01:36:46.816Z,46.76
2023-03-27T01:39:16.292Z,47.08
2023-03-27T01:41:53.680Z,47.08
2023-03-27T01:44:43.358Z,46.84
2023-03-27T01:47:27.284Z,46.65
2023-03-27T01:50:21.475Z,46.91
2023-03-27T01:52:56.269Z,46.66
2023-03-27T01:55:28.077Z,46.79
2023-03-27T01:58:03.144Z,46.91
2023-03-27T02:00:50.985Z,46.72
2023-03-27T02:03:33.654Z,46.75
2023-03-27T02:06:16.923Z,46.60
2023-03-27T02:08:53.309Z,47.00
2023-03-27T02:11:22.977Z,46.83
2023-03-27T02:13:56.085Z,46.87
2023-03-27T02:16:28.738Z,46.80
2023-03-27T02:19:00.826Z,46.89
2023-03-27T02:21:27.926Z,46.63
2023-03-27T02:23:56.624Z,46.66
2023-03-27T02:26:23.786Z,47.06
2023-03-27T02:29:28.427Z,46.81
2023-03-27T02:32:11.446Z,46.61
2023-03-27T02:34:51.046Z,46.54
2023-03-27T02:37:36.389Z,46.55
2023-03-27T02:40:14.160Z,46.79
2023-03-27T02:43:09.896Z,47.03
2023-03-27T02:45:54.567Z,46.74
2023-03-27T02:48:38.814Z,46.86
2023-03-27T02:51:47.673Z,46.97
2023-03-27T02:54:28.991Z,47.06
2023-03-27T02:57:01.526Z,46.78
2023-03-27T02:59:42.518Z,46.87
2023-03-27T03:02:16.716Z,47.10
2023-03-27T03:04:51.024Z,46.64
2023-03-27T03:07:18.587Z,46.93
2023-03-27T03:09:45.243Z,46.88
2023-03-27T03:12:12.150Z,46.67
2023-03-27T03:14:43.972Z,46.49
2023-03-27T03:17:11.976Z,46.89
2023-03-27T03:19:38.859Z,46.59
2023-03-27T03:22:06.132Z,46.58
2023-03-27T03:24:33.367Z,46.95
2023-03-27T03:27:02.452Z,46.79
2023-03-27T03:29:30.193Z,46.54
2023-03-27T03:31:57.335Z,46.88
2023-03-27T03:34:24.061Z,46.68
2023-03-27T03:36:50.631Z,46.78
2023-03-27T03:39:17.582Z,46.52
2023-03-27T03:41:44.160Z,46.59
2023-03-27T03:44:10.730Z,46.93
2023-03-27T03:46:37.531Z,46.42
2023-03-27T03:49:04.959Z,46.54
2023-03-27T03:51:32.477Z,46.86
2023-03-27T03:53:59.314Z,46.97
2023-03-27T03:56:27.749Z,46.82
2023-03-27T03:58:54.314Z,46.70
2023-03-27T04:01:22.491Z,47.24
2023-03-27T04:03:49.891Z,47.04
2023-03-27T04:06:25.612Z,46.77
2023-03-27T04:08:53.101Z,46.41
2023-03-27T04:11:20.055Z,46.67
2023-03-27T04:13:46.639Z,45.99
2023-03-27T04:16:13.318Z,45.57
2023-03-27T04:18:41.323Z,45.64
2023-03-27T04:21:14.465Z,45.95
2023-03-27T04:23:42.807Z,45.81
2023-03-27T04:26:12.268Z,45.81
2023-03-27T04:28:39.613Z,45.75
2023-03-27T04:31:07.911Z,45.09
2023-03-27T04:33:39.893Z,45.76
2023-03-27T04:36:08.481Z,45.85
2023-03-27T04:38:40.848Z,45.51
2023-03-27T04:41:07.637Z,45.78
2023-03-27T04:43:36.738Z,45.52
2023-03-27T04:46:06.386Z,46.31
2023-03-27T04:48:34.199Z,45.84
2023-03-27T04:51:00.758Z,45.96
2023-03-27T04:53:30.265Z,46.39
2023-03-27T04:55:57.308Z,46.29
2023-03-27T04:58:25.786Z,46.34
2023-03-27T05:00:55.935Z,46.55
2023-03-27T05:03:28.272Z,46.36
2023-03-27T05:05:55.168Z,46.41
2023-03-27T05:08:21.868Z,46.19
2023-03-27T05:10:48.341Z,46.06
2023-03-27T05:13:15.392Z,46.54
2023-03-27T05:15:42.160Z,46.51
2023-03-27T05:18:09.092Z,46.61
2023-03-27T05:20:36.372Z,46.09
2023-03-27T05:23:03.239Z,46.19
2023-03-27T05:25:31.001Z,45.95
2023-03-27T05:27:58.117Z,45.93
2023-03-27T05:30:26.898Z,46.29
2023-03-27T05:32:54.120Z,45.99
2023-03-27T05:35:23.753Z,46.35
2023-03-27T05:37:53.110Z,46.18
2023-03-27T05:40:28.098Z,45.78
2023-03-27T05:42:56.408Z,45.72
2023-03-27T05:45:23.351Z,45.95
2023-03-27T05:47:56.653Z,46.09
2023-03-27T05:50:29.118Z,46.28
2023-03-27T05:53:00.640Z,46.45
2023-03-27T05:55:28.048Z,46.03
2023-03-27T05:57:54.841Z,45.98
2023-03-27T06:00:27.207Z,45.96
2023-03-27T06:02:56.374Z,45.39
2023-03-27T06:05:24.034Z,45.41
2023-03-27T06:07:51.506Z,45.76
2023-03-27T06:10:20.297Z,45.41
2023-03-27T06:12:48.943Z,45.62
2023-03-27T06:15:16.089Z,45.60
2023-03-27T06:17:43.978Z,46.21
2023-03-27T06:20:13.053Z,45.89
2023-03-27T06:22:44.775Z,45.89
2023-03-27T06:25:11.469Z,45.00
2023-03-27T06:27:38.057Z,45.10
2023-03-27T06:30:05.399Z,45.29
2023-03-27T06:32:32.017Z,45.06
2023-03-27T06:34:58.541Z,44.83
2023-03-27T06:37:25.100Z,44.71
2023-03-27T06:39:52.108Z,44.75
2023-03-27T06:42:18.663Z,44.73
2023-03-27T06:44:45.436Z,44.71
2023-03-27T06:47:12.904Z,44.29
2023-03-27T06:49:39.550Z,44.97
2023-03-27T06:52:06.965Z,45.49
2023-03-27T06:54:33.768Z,44.64
2023-03-27T06:57:01.640Z,44.58
2023-03-27T06:59:28.196Z,44.03
2023-03-27T07:01:54.735Z,44.27
2023-03-27T07:04:21.338Z,44.20
2023-03-27T07:06:48.985Z,44.25
2023-03-27T07:09:15.715Z,44.30
2023-03-27T07:11:42.508Z,43.85
2023-03-27T07:14:09.147Z,44.17
2023-03-27T07:16:35.702Z,43.59
2023-03-27T07:19:02.669Z,43.86
2023-03-27T07:21:29.575Z,43.22
2023-03-27T07:23:56.314Z,43.08
2023-03-27T07:26:22.865Z,43.08
2023-03-27T07:28:51.653Z,43.16
2023-03-27T07:33:48.461Z,42.60
2023-03-27T07:36:16.174Z,42.50
2023-03-27T07:38:42.694Z,42.84
2023-03-27T07:41:09.313Z,42.47
2023-03-27T07:43:35.902Z,42.25
2023-03-27T07:46:03.218Z,42.37
2023-03-27T07:48:30.496Z,42.29
2023-03-27T07:51:07.214Z,41.76
2023-03-27T07:53:39.691Z,41.57
2023-03-27T07:56:08.744Z,41.72
2023-03-27T07:58:35.389Z,41.51
2023-03-27T08:01:02.859Z,41.66
2023-03-27T08:03:30.848Z,41.54
2023-03-27T08:05:59.824Z,41.61
2023-03-27T08:08:27.159Z,41.70
2023-03-27T08:10:57.941Z,42.08
2023-03-27T08:13:24.640Z,41.97
2023-03-27T08:15:51.376Z,42.40
2023-03-27T08:18:17.981Z,42.22
2023-03-27T08:20:45.635Z,42.24
2023-03-27T08:23:12.302Z,42.61
2023-03-27T08:25:38.876Z,42.56
2023-03-27T08:28:05.469Z,41.89
2023-03-27T08:30:32.362Z,42.05
2023-03-27T08:33:00.012Z,42.37
2023-03-27T08:35:26.687Z,42.02
2023-03-27T08:37:54.008Z,42.21
2023-03-27T08:40:26.087Z,41.87
2023-03-27T08:42:57.115Z,41.77
2023-03-27T08:45:31.790Z,41.96
2023-03-27T08:48:08.262Z,42.12
2023-03-27T08:50:41.956Z,42.17
2023-03-27T08:53:16.780Z,42.23
2023-03-27T08:55:44.599Z,41.78
2023-03-27T08:58:30.455Z,41.71
2023-03-27T09:01:06.997Z,42.23
2023-03-27T09:03:47.643Z,41.55
2023-03-27T09:06:27.658Z,41.76
2023-03-27T09:09:09.285Z,41.88
2023-03-27T09:11:49.432Z,42.06
2023-03-27T09:14:22.144Z,42.41
2023-03-27T09:16:50.288Z,41.97
2023-03-27T09:19:27.151Z,41.62
2023-03-27T09:22:25.142Z,41.64
2023-03-27T09:24:57.943Z,41.60
2023-03-27T09:27:29.816Z,40.82
2023-03-27T09:30:04.917Z,41.54
2023-03-27T09:32:33.293Z,41.59
2023-03-27T09:35:00.766Z,41.69
2023-03-27T09:37:27.571Z,41.68
2023-03-27T09:39:55.189Z,41.29
2023-03-27T09:42:26.343Z,41.30
2023-03-27T09:44:59.477Z,41.75
2023-03-27T09:47:38.293Z,41.61
2023-03-27T09:50:47.032Z,42.39
2023-03-27T09:53:16.879Z,42.44
2023-03-27T09:56:06.045Z,42.37
2023-03-27T09:58:43.536Z,42.30
2023-03-27T10:01:16.797Z,41.85
2023-03-27T10:03:51.985Z,42.33
2023-03-27T10:06:30.190Z,42.24
2023-03-27T10:09:01.111Z,41.96
2023-03-27T10:11:32.746Z,41.63
2023-03-27T10:14:01.659Z,41.31
2023-03-27T10:16:29.183Z,42.00
2023-03-27T10:18:59.906Z,41.22
2023-03-27T10:21:35.496Z,41.48
2023-03-27T10:24:18.749Z,41.39
2023-03-27T10:26:47.629Z,41.61
2023-03-27T10:29:21.967Z,40.87
2023-03-27T10:31:51.995Z,41.11
2023-03-27T10:34:39.836Z,41.23
2023-03-27T10:37:33.957Z,41.17
2023-03-27T10:40:07.562Z,40.87
2023-03-27T10:42:35.693Z,39.88
2023-03-27T10:45:03.141Z,40.50
2023-03-27T10:47:33.152Z,40.53
2023-03-27T10:50:23.079Z,40.15
2023-03-27T10:53:05.852Z,40.64
2023-03-27T10:55:51.865Z,40.30
2023-03-27T10:58:24.030Z,40.58
2023-03-27T11:00:58.778Z,40.29
2023-03-27T11:03:25.702Z,40.34
2023-03-27T11:05:54.431Z,40.07
2023-03-27T11:08:29.629Z,39.79
2023-03-27T11:11:02.390Z,39.78
2023-03-27T11:13:36.328Z,40.02
2023-03-27T11:16:20.394Z,39.67
2023-03-27T11:18:56.144Z,39.88
2023-03-27T11:21:44.134Z,39.98
2023-03-27T11:24:25.931Z,39.89
2023-03-27T11:27:04.962Z,39.96
2023-03-27T11:29:39.828Z,39.80
2023-03-27T11:32:19.696Z,39.42
2023-03-27T11:34:48.840Z,39.80
2023-03-27T11:37:28.971Z,39.39
2023-03-27T11:40:05.869Z,38.93
2023-03-27T11:42:36.861Z,39.24
2023-03-27T11:45:07.343Z,39.07
2023-03-27T11:47:55.651Z,39.36
2023-03-27T11:50:34.982Z,39.50
2023-03-27T11:53:32.660Z,39.33
2023-03-27T11:56:09.653Z,39.29
2023-03-27T11:59:04.462Z,39.24
2023-03-27T12:01:48.113Z,38.85
2023-03-27T12:04:50.237Z,39.07
2023-03-27T12:07:36.151Z,38.83
2023-03-27T12:10:31.866Z,38.52
2023-03-27T12:13:17.236Z,39.05
2023-03-27T12:16:01.409Z,38.97
2023-03-27T12:18:37.623Z,39.24
2023-03-27T12:21:23.974Z,39.47
2023-03-27T12:24:24.322Z,38.84
2023-03-27T12:27:10.415Z,39.36
2023-03-27T12:29:51.965Z,39.20
2023-03-27T12:32:24.997Z,38.90
2023-03-27T12:34:59.742Z,38.71
2023-03-27T12:37:31.059Z,38.90
2023-03-27T12:40:00.084Z,39.11
2023-03-27T12:42:48.053Z,38.76
2023-03-27T12:45:26.982Z,38.91
2023-03-27T12:50:45.437Z,38.61
2023-03-27T12:53:27.204Z,38.47
2023-03-27T12:56:19.523Z,38.43
2023-03-27T12:58:51.584Z,38.43
2023-03-27T13:01:51.546Z,37.82
2023-03-27T13:04:43.288Z,38.01
2023-03-27T13:07:18.837Z,38.14
2023-03-27T13:09:53.008Z,37.99
2023-03-27T13:12:22.441Z,38.68
2023-03-27T13:15:26.064Z,38.09
2023-03-27T13:17:55.412Z,38.10
2023-03-27T13:20:34.917Z,38.01
2023-03-27T13:23:18.277Z,38.12
2023-03-27T13:26:15.763Z,38.21
2023-03-27T13:28:48.586Z,38.35
2023-03-27T13:31:44.598Z,38.51
2023-03-27T13:34:26.295Z,38.09
2023-03-27T13:37:11.267Z,38.24
2023-03-27T13:39:48.175Z,38.31
2023-03-27T13:42:24.347Z,38.52
2023-03-27T13:45:01.118Z,38.37
2023-03-27T13:47:33.596Z,38.11
2023-03-27T13:50:31.970Z,38.04
2023-03-27T13:53:07.775Z,38.38
2023-03-27T13:55:49.058Z,38.45
2023-03-27T13:58:48.188Z,38.47
2023-03-27T14:01:17.418Z,38.58
2023-03-27T14:03:57.664Z,37.98
2023-03-27T14:06:24.271Z,38.73
2023-03-27T14:09:25.520Z,38.66
2023-03-27T14:11:52.067Z,38.68
2023-03-27T14:14:37.223Z,38.43
2023-03-27T14:17:28.057Z,38.43
2023-03-27T14:20:21.582Z,38.23
2023-03-27T14:23:06.471Z,38.45
2023-03-27T14:25:38.304Z,38.42
2023-03-27T14:28:09.199Z,38.59
2023-03-27T14:30:47.855Z,38.13
2023-03-27T14:33:20.154Z,38.39
2023-03-27T14:35:54.516Z,38.70
2023-03-27T14:38:25.696Z,38.48
2023-03-27T14:40:57.438Z,38.52
2023-03-27T14:43:27.537Z,38.22
2023-03-27T14:45:58.491Z,38.47
2023-03-27T14:48:37.143Z,38.46
2023-03-27T14:51:13.526Z,38.25
2023-03-27T14:53:45.774Z,38.21
2023-03-27T14:56:37.170Z,38.18
2023-03-27T14:59:10.897Z,38.45
2023-03-27T15:01:38.304Z,38.33
2023-03-27T15:04:07.338Z,38.63
2023-03-27T15:06:36.706Z,38.46
2023-03-27T15:09:11.321Z,38.74
2023-03-27T15:11:40.203Z,38.34
2023-03-27T15:14:16.554Z,38.74
2023-03-27T15:16:49.790Z,37.93
2023-03-27T15:19:43.250Z,37.91
2023-03-27T15:22:23.174Z,37.79
2023-03-27T15:24:55.358Z,38.20
2023-03-27T15:27:27.822Z,38.23
2023-03-27T15:30:07.981Z,38.46
2023-03-27T15:32:44.675Z,38.23
2023-03-27T15:35:16.666Z,37.96
2023-03-27T15:37:43.855Z,38.00
2023-03-27T15:40:13.351Z,37.76
2023-03-27T15:42:52.205Z,37.70
2023-03-27T15:45:23.037Z,37.46
2023-03-27T15:48:06.605Z,37.60
2023-03-27T15:50:34.166Z,37.66
2023-03-27T15:53:02.279Z,37.75
2023-03-27T15:55:47.684Z,37.55
2023-03-27T15:58:25.104Z,37.32
2023-03-27T16:00:57.546Z,37.53
2023-03-27T16:03:26.078Z,37.43
2023-03-27T16:05:56.509Z,37.31
2023-03-27T16:08:36.517Z,37.22
2023-03-27T16:11:05.015Z,37.06
2023-03-27T16:13:56.060Z,37.17
2023-03-27T16:16:28.021Z,37.32
2023-03-27T16:18:58.139Z,37.21
2023-03-27T16:21:27.671Z,37.78
2023-03-27T16:23:54.668Z,37.69
2023-03-27T16:26:28.176Z,37.68
2023-03-27T16:28:57.597Z,37.71
2023-03-27T16:31:24.163Z,37.91
2023-03-27T16:33:51.073Z,37.74
2023-03-27T16:36:29.500Z,37.69
2023-03-27T16:38:56.647Z,38.50
2023-03-27T16:41:23.801Z,38.41
2023-03-27T16:43:50.444Z,38.41
2023-03-27T16:46:27.866Z,38.52
2023-03-27T16:48:56.275Z,38.31
2023-03-27T16:53:52.777Z,38.06
2023-03-27T16:56:20.015Z,37.46
2023-03-27T16:58:47.013Z,37.68
2023-03-27T17:01:13.881Z,37.59
2023-03-27T17:03:40.766Z,37.22
2023-03-27T17:06:09.775Z,37.30
2023-03-27T17:08:37.159Z,37.40
2023-03-27T17:11:09.588Z,37.22
2023-03-27T17:13:37.354Z,37.41
2023-03-27T17:16:05.312Z,37.43
2023-03-27T17:18:32.234Z,37.33
2023-03-27T17:20:58.858Z,37.41
2023-03-27T17:23:25.549Z,37.27
2023-03-27T17:25:52.145Z,37.46
2023-03-27T17:28:18.916Z,37.49
2023-03-27T17:30:56.428Z,37.61
2023-03-27T17:33:28.583Z,37.51
2023-03-27T17:35:57.225Z,37.90
2023-03-27T17:38:24.364Z,37.50
2023-03-27T17:40:51.762Z,37.90
2023-03-27T17:43:18.671Z,37.84
2023-03-27T17:45:45.410Z,37.73
2023-03-27T17:48:12.294Z,38.42
2023-03-27T17:50:39.621Z,38.54
2023-03-27T17:53:06.932Z,38.55
2023-03-27T17:55:36.057Z,38.65
2023-03-27T17:58:09.421Z,38.83
2023-03-27T18:00:38.436Z,38.50
2023-03-27T18:03:06.385Z,38.77
2023-03-27T18:05:43.208Z,39.50
2023-03-27T18:08:12.689Z,39.51
2023-03-27T18:10:50.760Z,39.84
2023-03-27T18:13:18.474Z,40.03
2023-03-27T18:15:45.867Z,40.51
2023-03-27T18:18:12.919Z,40.41
2023-03-27T18:20:39.716Z,40.45
2023-03-27T18:23:06.629Z,40.41
2023-03-27T18:25:33.247Z,40.54
2023-03-27T18:27:59.747Z,40.47
2023-03-27T18:30:26.406Z,40.11
2023-03-27T18:32:53.003Z,40.49
2023-03-27T18:35:20.396Z,40.45
2023-03-27T18:37:47.036Z,40.30
2023-03-27T18:40:15.346Z,40.07
2023-03-27T18:42:44.956Z,40.40
2023-03-27T18:45:13.267Z,40.25
2023-03-27T18:47:41.814Z,40.32
2023-03-27T18:50:09.577Z,40.31
2023-03-27T18:52:36.144Z,40.08
2023-03-27T18:55:02.705Z,40.43
2023-03-27T18:57:29.374Z,40.74
2023-03-27T18:59:55.996Z,40.13
2023-03-27T19:02:22.731Z,40.80
2023-03-27T19:04:49.385Z,40.37
2023-03-27T19:07:16.778Z,39.97
2023-03-27T19:09:43.515Z,40.61
2023-03-27T19:12:11.398Z,40.45
2023-03-27T19:14:37.978Z,39.86
2023-03-27T19:17:05.223Z,40.12
2023-03-27T19:19:32.095Z,40.25
2023-03-27T19:21:58.766Z,39.77
2023-03-27T19:24:25.307Z,40.02
2023-03-27T19:26:52.732Z,39.84
2023-03-27T19:29:19.447Z,40.35
2023-03-27T19:31:46.155Z,40.31
2023-03-27T19:34:12.670Z,39.60
2023-03-27T19:36:39.265Z,39.82
2023-03-27T19:39:05.851Z,39.92
2023-03-27T19:41:32.398Z,40.21
2023-03-27T19:44:00.201Z,40.39
2023-03-27T19:46:28.425Z,40.51
2023-03-27T19:48:55.852Z,40.67
2023-03-27T19:51:22.831Z,40.03
2023-03-27T19:53:49.556Z,40.50
2023-03-27T19:56:16.143Z,40.78
2023-03-27T19:58:42.773Z,40.15
2023-03-27T20:01:09.457Z,40.33
2023-03-27T20:03:38.330Z,40.57
2023-03-27T20:06:11.813Z,40.32
2023-03-27T20:08:41.053Z,40.39
2023-03-27T20:11:07.942Z,40.54
2023-03-27T20:13:42.507Z,40.87
2023-03-27T20:16:14.897Z,40.23
2023-03-27T20:18:41.842Z,40.56
2023-03-27T20:21:09.634Z,40.60
2023-03-27T20:23:38.492Z,40.20
2023-03-27T20:26:05.250Z,40.51
2023-03-27T20:28:31.777Z,40.52
2023-03-27T20:31:03.484Z,40.74
2023-03-27T20:33:30.211Z,40.91
2023-03-27T20:35:56.836Z,40.41
2023-03-27T20:38:23.897Z,40.53
2023-03-27T20:40:54.297Z,40.72
2023-03-27T20:43:22.922Z,40.83
2023-03-27T20:45:54.820Z,40.59
2023-03-27T20:48:22.051Z,41.01
2023-03-27T20:50:55.413Z,41.04
2023-03-27T20:53:26.253Z,40.85
2023-03-27T20:56:01.134Z,40.75
2023-03-27T20:58:28.650Z,40.33
2023-03-27T21:00:56.726Z,40.86
2023-03-27T21:03:23.344Z,40.40
2023-03-27T21:05:50.565Z,40.22
2023-03-27T21:08:17.236Z,40.92
2023-03-27T21:10:53.608Z,40.59
2023-03-27T21:13:20.601Z,40.50
2023-03-27T21:15:47.765Z,41.21
2023-03-27T21:18:14.309Z,41.15
2023-03-27T21:20:41.116Z,41.19
2023-03-27T21:23:07.613Z,40.63
2023-03-27T21:25:35.334Z,41.28
2023-03-27T21:28:01.938Z,40.98
2023-03-27T21:30:46.600Z,41.00
2023-03-27T21:33:18.029Z,41.01
2023-03-27T21:35:49.068Z,41.40
2023-03-27T21:38:17.302Z,41.22
2023-03-27T21:40:46.411Z,41.28
2023-03-27T21:43:13.114Z,41.48
2023-03-27T21:45:39.742Z,41.51
2023-03-27T21:48:06.616Z,41.60
2023-03-27T21:50:33.225Z,41.26
2023-03-27T21:52:59.728Z,41.29
2023-03-27T21:55:26.257Z,41.65
2023-03-27T21:57:52.797Z,41.12
2023-03-27T22:00:20.081Z,41.44
2023-03-27T22:02:46.684Z,41.20
2023-03-27T22:05:13.427Z,41.26
2023-03-27T22:07:40.444Z,41.49
2023-03-27T22:10:07.353Z,41.54
2023-03-27T22:12:37.429Z,41.17
2023-03-27T22:15:05.869Z,41.55
2023-03-27T22:17:34.636Z,41.33
2023-03-27T22:20:01.195Z,41.79
2023-03-27T22:22:27.841Z,41.62
2023-03-27T22:24:54.338Z,41.44
2023-03-27T22:27:21.008Z,41.59
2023-03-27T22:29:47.565Z,41.46
2023-03-27T22:32:14.064Z,41.30
2023-03-27T22:34:40.580Z,41.37
2023-03-27T22:37:07.340Z,41.11
2023-03-27T22:39:33.848Z,41.25
2023-03-27T22:42:00.467Z,41.44
2023-03-27T22:44:29.716Z,42.00
2023-03-27T22:46:56.514Z,41.36
2023-03-27T22:49:23.074Z,41.83
2023-03-27T22:51:49.608Z,41.68
2023-03-27T22:54:18.447Z,41.64
2023-03-27T22:56:46.313Z,41.74
2023-03-27T22:59:17.348Z,41.67
2023-03-27T23:01:44.630Z,41.92
2023-03-27T23:04:11.217Z,41.40
2023-03-27T23:06:39.041Z,41.98
2023-03-27T23:09:05.636Z,41.74
2023-03-27T23:11:32.148Z,41.43
2023-03-27T23:13:58.725Z,41.93
2023-03-27T23:16:25.325Z,41.73
2023-03-27T23:18:51.883Z,41.70
2023-03-27T23:21:18.432Z,41.67
2023-03-27T23:23:45.720Z,41.84
2023-03-27T23:26:12.862Z,41.34
2023-03-27T23:28:41.650Z,41.68
2023-03-27T23:31:15.060Z,41.37
2023-03-27T23:33:44.437Z,41.91
2023-03-27T23:36:20.210Z,41.88
2023-03-27T23:38:47.014Z,41.59
2023-03-27T23:41:15.023Z,41.70
2023-03-27T23:43:41.827Z,42.27
2023-03-27T23:46:10.485Z,41.98
2023-03-27T23:48:38.954Z,41.51
2023-03-27T23:51:05.897Z,41.87
2023-03-27T23:53:32.980Z,41.68
2023-03-27T23:56:00.528Z,41.95
2023-03-27T23:58:32.287Z,42.25
